Time;durP1;ratioP1;P1;durP2;ratioP2;P2;SDS_P1;SDS_P2;PMS_P1;PMS_P2;Temp;Humidity;BMP_temperature;BMP_pressure;BME280_temperature;BME280_humidity;BME280_pressure;Samples;Min_cycle;Max_cycle;Signal;HPM_P1;HPM_P2
2022/10/30 00:00:07;;;;;;;5.83;4.00;;;;;;;;;;4960799;28;20566;-55
2022/10/30 00:02:33;;;;;;;11.63;3.73;;;;;;;;;;4980656;28;20460;-57
2022/10/30 00:04:59;;;;;;;13.40;2.93;;;;;;;;;;4953265;28;20542;-55
2022/10/30 00:07:25;;;;;;;10.23;3.60;;;;;;;;;;4979174;28;20437;-56
2022/10/30 00:09:50;;;;;;;8.73;3.20;;;;;;;;;;4958276;28;20466;-56
2022/10/30 00:12:16;;;;;;;6.20;3.87;;;;;;;;;;4984234;28;20543;-57
2022/10/30 00:14:43;;;;;;;9.33;3.27;;;;;;;;;;4947266;28;20859;-57
2022/10/30 00:17:09;;;;;;;16.20;4.20;;;;;;;;;;4977395;28;20441;-56
2022/10/30 00:19:34;;;;;;;5.77;3.77;;;;;;;;;;4978998;28;20445;-56
2022/10/30 00:22:01;;;;;;;9.33;3.70;;;;;;;;;;4984603;28;20499;-56
2022/10/30 00:24:27;;;;;;;10.53;3.63;;;;;;;;;;4962473;28;21503;-56
2022/10/30 00:26:53;;;;;;;8.37;3.30;;;;;;;;;;4986542;28;20455;-56
2022/10/30 00:29:22;;;;;;;9.60;4.20;;;;;;;;;;4962850;28;21666;-56
2022/10/30 00:31:48;;;;;;;12.03;4.30;;;;;;;;;;4980897;28;20433;-55
2022/10/30 00:34:14;;;;;;;8.00;2.97;;;;;;;;;;4951828;28;21021;-56
2022/10/30 00:36:40;;;;;;;8.97;4.33;;;;;;;;;;4977804;28;20950;-56
2022/10/30 00:39:06;;;;;;;10.20;3.40;;;;;;;;;;4981831;28;20485;-57
2022/10/30 00:41:32;;;;;;;7.00;3.27;;;;;;;;;;4979913;28;20457;-57
2022/10/30 00:43:58;;;;;;;14.63;3.30;;;;;;;;;;4960579;28;20445;-57
2022/10/30 00:46:26;;;;;;;8.40;3.60;;;;;;;;;;4983430;28;20464;-56
2022/10/30 00:48:53;;;;;;;8.90;3.20;;;;;;;;;;4941335;28;20523;-56
2022/10/30 00:51:19;;;;;;;8.37;3.10;;;;;;;;;;4979376;28;20451;-56
2022/10/30 00:53:46;;;;;;;8.27;3.40;;;;;;;;;;4977348;28;20443;-56
2022/10/30 00:56:12;;;;;;;5.80;3.00;;;;;;;;;;4996774;28;20449;-56
2022/10/30 00:58:39;;;;;;;10.63;4.87;;;;;;;;;;4969145;28;20463;-58
2022/10/30 01:01:07;;;;;;;10.73;3.40;;;;;;;;;;4974140;28;20444;-57
2022/10/30 01:03:33;;;;;;;9.40;3.10;;;;;;;;;;4973288;28;21003;-56
2022/10/30 01:06:01;;;;;;;8.70;3.70;;;;;;;;;;4981567;28;20480;-55
2022/10/30 01:08:27;;;;;;;6.50;3.30;;;;;;;;;;4967187;28;20456;-57
2022/10/30 01:10:52;;;;;;;10.40;3.30;;;;;;;;;;4984295;28;20445;-56
2022/10/30 01:13:19;;;;;;;10.20;3.70;;;;;;;;;;4995849;28;20523;-57
2022/10/30 01:16:03;;;;;;;6.30;3.10;;;;;;;;;;4986335;28;20799;-56
2022/10/30 01:18:39;;;;;;;8.90;2.77;;;;;;;;;;4977114;28;20437;-56
2022/10/30 01:21:08;;;;;;;5.90;2.70;;;;;;;;;;4980959;28;20969;-57
2022/10/30 01:23:41;;;;;;;6.47;2.50;;;;;;;;;;4945608;28;21304;-56
2022/10/30 01:26:26;;;;;;;9.73;3.57;;;;;;;;;;4979329;28;21035;-56
2022/10/30 01:28:59;;;;;;;8.73;3.27;;;;;;;;;;4953395;28;20515;-56
2022/10/30 01:31:28;;;;;;;6.37;3.30;;;;;;;;;;4978055;28;20538;-57
2022/10/30 01:34:13;;;;;;;11.30;3.70;;;;;;;;;;4978542;28;20492;-56
2022/10/30 01:36:39;;;;;;;8.23;3.27;;;;;;;;;;4983292;28;20440;-54
2022/10/30 01:39:12;;;;;;;8.47;3.50;;;;;;;;;;4957417;28;20447;-55
2022/10/30 01:41:38;;;;;;;7.73;3.33;;;;;;;;;;4982987;28;20209;-56
2022/10/30 01:44:13;;;;;;;6.40;2.93;;;;;;;;;;4985819;28;20851;-56
2022/10/30 01:46:42;;;;;;;10.03;3.30;;;;;;;;;;4984180;28;20448;-56
2022/10/30 01:49:11;;;;;;;9.63;3.53;;;;;;;;;;4978079;28;20543;-56
2022/10/30 01:51:56;;;;;;;6.00;3.00;;;;;;;;;;4988654;28;21004;-56
2022/10/30 01:54:41;;;;;;;6.87;3.63;;;;;;;;;;4948147;28;20491;-56
2022/10/30 01:57:19;;;;;;;8.10;3.70;;;;;;;;;;4990238;28;20483;-57
2022/10/30 01:59:51;;;;;;;13.90;3.10;;;;;;;;;;4957764;28;20552;-57
2022/10/30 02:02:17;;;;;;;4.60;3.10;;;;;;;;;;4987444;28;20436;-55
2022/10/30 02:04:43;;;;;;;6.63;3.17;;;;;;;;;;4976694;28;20834;-56
2022/10/30 02:07:10;;;;;;;9.83;4.20;;;;;;;;;;4994959;28;20434;-56
2022/10/30 02:09:36;;;;;;;6.17;3.80;;;;;;;;;;4982733;28;20451;-55
2022/10/30 02:12:02;;;;;;;8.37;3.50;;;;;;;;;;5002557;28;20444;-56
2022/10/30 02:14:32;;;;;;;9.20;3.20;;;;;;;;;;4960206;28;20623;-56
2022/10/30 02:16:59;;;;;;;8.30;2.97;;;;;;;;;;4981355;28;20441;-56
2022/10/30 02:19:25;;;;;;;7.63;3.50;;;;;;;;;;4958673;28;20965;-56
2022/10/30 02:21:50;;;;;;;4.80;3.00;;;;;;;;;;4987047;28;20441;-56
2022/10/30 02:24:16;;;;;;;11.40;3.53;;;;;;;;;;4972956;28;20960;-56
2022/10/30 02:26:43;;;;;;;9.70;4.63;;;;;;;;;;4983285;28;20446;-56
2022/10/30 02:29:09;;;;;;;7.30;3.57;;;;;;;;;;4943726;28;20440;-55
2022/10/30 02:31:35;;;;;;;8.40;3.77;;;;;;;;;;4979951;28;20447;-55
2022/10/30 02:34:01;;;;;;;9.37;4.23;;;;;;;;;;4956870;28;20797;-54
2022/10/30 02:36:27;;;;;;;13.57;5.00;;;;;;;;;;4983270;28;20457;-55
2022/10/30 02:38:54;;;;;;;9.13;2.83;;;;;;;;;;4980754;28;20441;-54
2022/10/30 02:41:20;;;;;;;9.30;2.63;;;;;;;;;;4986270;28;20444;-55
2022/10/30 02:43:46;;;;;;;12.53;4.00;;;;;;;;;;4957353;28;20448;-56
2022/10/30 02:46:12;;;;;;;7.47;3.20;;;;;;;;;;4980636;28;20893;-56
2022/10/30 02:48:38;;;;;;;7.03;3.40;;;;;;;;;;4956412;28;20830;-56
2022/10/30 02:51:04;;;;;;;10.80;3.37;;;;;;;;;;4988766;28;20440;-56
2022/10/30 02:53:30;;;;;;;4.83;3.13;;;;;;;;;;4975517;28;20439;-56
2022/10/30 02:55:56;;;;;;;9.90;3.30;;;;;;;;;;4984406;28;20440;-56
2022/10/30 02:58:22;;;;;;;6.93;3.50;;;;;;;;;;4976115;28;20440;-55
2022/10/30 03:00:48;;;;;;;4.80;2.90;;;;;;;;;;4979105;28;20821;-56
2022/10/30 03:03:18;;;;;;;9.53;3.73;;;;;;;;;;4951606;28;21231;-56
2022/10/30 03:05:45;;;;;;;8.47;2.90;;;;;;;;;;4952024;28;21029;-56
2022/10/30 03:08:11;;;;;;;7.23;3.03;;;;;;;;;;4985939;28;20528;-56
2022/10/30 03:10:37;;;;;;;10.90;3.00;;;;;;;;;;4959375;28;20477;-55
2022/10/30 03:13:03;;;;;;;11.07;2.90;;;;;;;;;;4984110;28;20476;-56
2022/10/30 03:15:29;;;;;;;8.27;3.03;;;;;;;;;;4961164;28;20457;-56
2022/10/30 03:17:55;;;;;;;12.17;3.60;;;;;;;;;;4985321;28;20425;-56
2022/10/30 03:20:21;;;;;;;9.17;3.10;;;;;;;;;;4963371;28;20978;-56
2022/10/30 03:22:47;;;;;;;7.20;2.87;;;;;;;;;;4988781;28;20971;-56
2022/10/30 03:25:13;;;;;;;8.57;2.70;;;;;;;;;;4980748;28;20484;-56
2022/10/30 03:27:39;;;;;;;7.73;3.43;;;;;;;;;;4984289;28;20884;-56
2022/10/30 03:30:05;;;;;;;13.40;4.00;;;;;;;;;;4957614;28;20442;-56
2022/10/30 03:32:31;;;;;;;6.70;3.10;;;;;;;;;;4988798;28;20824;-57
2022/10/30 03:34:57;;;;;;;16.93;4.00;;;;;;;;;;4945265;28;20451;-56
2022/10/30 03:37:23;;;;;;;6.07;2.67;;;;;;;;;;4984714;28;20188;-56
2022/10/30 03:39:49;;;;;;;11.00;3.23;;;;;;;;;;4958375;28;21251;-55
2022/10/30 03:42:15;;;;;;;10.47;3.20;;;;;;;;;;4984600;28;20449;-55
2022/10/30 03:44:41;;;;;;;7.33;2.70;;;;;;;;;;4956674;28;20472;-56
2022/10/30 03:47:07;;;;;;;5.80;2.90;;;;;;;;;;4986376;28;20421;-55
2022/10/30 03:49:33;;;;;;;12.30;3.47;;;;;;;;;;4976116;28;20475;-56
2022/10/30 03:51:59;;;;;;;5.20;3.67;;;;;;;;;;4957432;28;20437;-54
2022/10/30 03:54:25;;;;;;;6.57;2.73;;;;;;;;;;4983313;28;20465;-55
2022/10/30 03:56:51;;;;;;;8.40;3.50;;;;;;;;;;4983280;28;20498;-55
2022/10/30 03:59:17;;;;;;;8.40;3.93;;;;;;;;;;4990434;28;20436;-55
2022/10/30 04:01:43;;;;;;;9.87;3.37;;;;;;;;;;4956070;28;20476;-55
2022/10/30 04:04:09;;;;;;;8.03;2.97;;;;;;;;;;4981091;28;20461;-53
2022/10/30 04:06:35;;;;;;;9.63;3.17;;;;;;;;;;4938055;28;20456;-56
2022/10/30 04:09:01;;;;;;;4.97;2.93;;;;;;;;;;4979798;28;20444;-58
2022/10/30 04:11:27;;;;;;;5.10;3.10;;;;;;;;;;4979047;28;20441;-56
2022/10/30 04:13:53;;;;;;;5.97;2.97;;;;;;;;;;4984815;28;20786;-57
2022/10/30 04:16:19;;;;;;;7.37;3.40;;;;;;;;;;4959839;28;20199;-56
2022/10/30 04:18:45;;;;;;;8.30;4.13;;;;;;;;;;4981423;28;20441;-56
2022/10/30 04:21:11;;;;;;;14.17;3.97;;;;;;;;;;4960504;28;20455;-56
2022/10/30 04:23:37;;;;;;;5.90;3.10;;;;;;;;;;4983791;28;21029;-57
2022/10/30 04:26:03;;;;;;;9.70;3.93;;;;;;;;;;4967281;28;20472;-57
2022/10/30 04:28:29;;;;;;;8.23;3.13;;;;;;;;;;4982206;28;20472;-57
2022/10/30 04:30:55;;;;;;;8.97;3.47;;;;;;;;;;4957015;28;20472;-56
2022/10/30 04:33:21;;;;;;;8.20;3.40;;;;;;;;;;4982649;28;20432;-54
2022/10/30 04:35:47;;;;;;;6.57;2.77;;;;;;;;;;4938923;28;21984;-54
2022/10/30 04:38:14;;;;;;;7.83;3.00;;;;;;;;;;4981816;28;20536;-55
2022/10/30 04:40:40;;;;;;;9.77;3.00;;;;;;;;;;4978454;28;20458;-55
2022/10/30 04:43:06;;;;;;;9.37;3.57;;;;;;;;;;4983935;28;20775;-55
2022/10/30 04:45:32;;;;;;;11.33;2.80;;;;;;;;;;4951899;28;20584;-54
2022/10/30 04:48:11;;;;;;;8.57;3.73;;;;;;;;;;4983836;28;20504;-56
2022/10/30 04:50:37;;;;;;;5.93;2.73;;;;;;;;;;4960026;28;20449;-56
2022/10/30 04:53:04;;;;;;;10.73;3.93;;;;;;;;;;5001225;28;20437;-56
2022/10/30 04:55:30;;;;;;;8.73;3.63;;;;;;;;;;4960875;28;20506;-55
2022/10/30 04:57:57;;;;;;;4.33;2.60;;;;;;;;;;4970729;28;20433;-56
2022/10/30 05:00:23;;;;;;;10.13;4.07;;;;;;;;;;4977908;28;21129;-56
2022/10/30 05:02:49;;;;;;;5.33;2.73;;;;;;;;;;4978237;28;20437;-56
2022/10/30 05:05:15;;;;;;;6.13;3.73;;;;;;;;;;4956975;28;20492;-56
2022/10/30 05:07:41;;;;;;;8.70;3.30;;;;;;;;;;4979299;28;20445;-56
2022/10/30 05:10:08;;;;;;;7.30;3.40;;;;;;;;;;4945320;28;20452;-56
2022/10/30 05:12:35;;;;;;;4.63;3.30;;;;;;;;;;4924158;28;22259;-55
2022/10/30 05:15:01;;;;;;;8.13;3.03;;;;;;;;;;4982997;28;20500;-55
2022/10/30 05:17:27;;;;;;;6.50;3.53;;;;;;;;;;4961235;28;20655;-56
2022/10/30 05:19:55;;;;;;;7.17;3.50;;;;;;;;;;4984767;28;20204;-56
2022/10/30 05:22:21;;;;;;;11.43;3.07;;;;;;;;;;4952988;28;20244;-56
2022/10/30 05:24:47;;;;;;;8.80;3.63;;;;;;;;;;4976647;28;20488;-56
2022/10/30 05:27:13;;;;;;;4.97;3.13;;;;;;;;;;4958262;28;21210;-56
2022/10/30 05:29:39;;;;;;;9.20;3.57;;;;;;;;;;4981925;28;20228;-56
2022/10/30 05:32:05;;;;;;;12.63;4.40;;;;;;;;;;4977493;28;20428;-56
2022/10/30 05:34:31;;;;;;;8.10;3.03;;;;;;;;;;4981265;28;20436;-56
2022/10/30 05:36:57;;;;;;;7.73;3.57;;;;;;;;;;4968394;28;20591;-56
2022/10/30 05:39:23;;;;;;;6.53;3.70;;;;;;;;;;4979431;28;20682;-56
2022/10/30 05:41:54;;;;;;;8.80;2.80;;;;;;;;;;4953270;28;20465;-56
2022/10/30 05:44:20;;;;;;;6.17;3.30;;;;;;;;;;4970359;28;20449;-55
2022/10/30 05:46:46;;;;;;;13.23;3.30;;;;;;;;;;4974166;28;20432;-56
2022/10/30 05:49:12;;;;;;;9.87;3.40;;;;;;;;;;4980268;28;20864;-56
2022/10/30 05:51:38;;;;;;;6.97;4.10;;;;;;;;;;4958740;28;20452;-56
2022/10/30 05:54:04;;;;;;;6.67;3.20;;;;;;;;;;4962083;28;20204;-56
2022/10/30 05:56:30;;;;;;;6.77;3.00;;;;;;;;;;4968875;28;20437;-56
2022/10/30 05:58:56;;;;;;;8.03;3.57;;;;;;;;;;4965163;28;21017;-54
2022/10/30 06:01:22;;;;;;;4.87;2.77;;;;;;;;;;4971107;28;20432;-56
2022/10/30 06:03:48;;;;;;;10.73;3.57;;;;;;;;;;4959308;28;22478;-54
2022/10/30 06:06:14;;;;;;;10.17;3.33;;;;;;;;;;4968429;28;20500;-57
2022/10/30 06:08:40;;;;;;;10.13;3.40;;;;;;;;;;4971696;28;20520;-56
2022/10/30 06:11:06;;;;;;;7.93;3.90;;;;;;;;;;4981009;28;20943;-55
2022/10/30 06:13:32;;;;;;;5.37;3.60;;;;;;;;;;4927772;28;20198;-56
2022/10/30 06:15:58;;;;;;;8.23;4.10;;;;;;;;;;4975508;28;20453;-56
2022/10/30 06:18:24;;;;;;;4.40;2.67;;;;;;;;;;4965938;28;20819;-57
2022/10/30 06:20:50;;;;;;;8.93;4.37;;;;;;;;;;4978644;28;20460;-56
2022/10/30 06:23:16;;;;;;;5.30;3.87;;;;;;;;;;4941740;28;21022;-56
2022/10/30 06:25:42;;;;;;;7.80;3.40;;;;;;;;;;4967337;28;20518;-56
2022/10/30 06:28:09;;;;;;;6.67;3.27;;;;;;;;;;4983312;28;20433;-56
2022/10/30 06:30:35;;;;;;;8.33;3.77;;;;;;;;;;4956031;28;20451;-56
2022/10/30 06:33:02;;;;;;;6.73;3.17;;;;;;;;;;4977937;28;21027;-56
2022/10/30 06:35:28;;;;;;;7.30;3.57;;;;;;;;;;4963651;28;20749;-55
2022/10/30 06:37:55;;;;;;;12.83;5.07;;;;;;;;;;4978108;28;20445;-55
2022/10/30 06:40:22;;;;;;;6.27;4.17;;;;;;;;;;4973089;28;20563;-56
2022/10/30 06:42:48;;;;;;;7.50;3.47;;;;;;;;;;4968256;28;20961;-56
2022/10/30 06:45:15;;;;;;;6.17;2.80;;;;;;;;;;4988450;28;20487;-57
2022/10/30 06:47:41;;;;;;;5.87;3.20;;;;;;;;;;4944321;28;21168;-55
2022/10/30 06:50:08;;;;;;;9.37;3.90;;;;;;;;;;4982485;28;20499;-58
2022/10/30 06:52:34;;;;;;;4.57;3.27;;;;;;;;;;4958851;28;20779;-56
2022/10/30 06:55:00;;;;;;;7.13;3.90;;;;;;;;;;4979738;28;20448;-56
2022/10/30 06:57:26;;;;;;;5.90;2.80;;;;;;;;;;4959801;28;20437;-56
2022/10/30 06:59:51;;;;;;;6.50;3.10;;;;;;;;;;4977766;28;20445;-55
2022/10/30 07:02:17;;;;;;;9.23;3.90;;;;;;;;;;4957318;28;20186;-54
2022/10/30 07:04:47;;;;;;;8.03;3.63;;;;;;;;;;4974729;28;20217;-55
2022/10/30 07:07:13;;;;;;;14.17;5.13;;;;;;;;;;4956914;28;20449;-56
2022/10/30 07:09:39;;;;;;;8.70;4.30;;;;;;;;;;4981928;28;20470;-56
2022/10/30 07:12:05;;;;;;;6.60;3.20;;;;;;;;;;4951283;28;21278;-56
2022/10/30 07:14:31;;;;;;;12.97;3.93;;;;;;;;;;4981631;28;20480;-56
2022/10/30 07:16:57;;;;;;;7.13;3.80;;;;;;;;;;4972679;28;20532;-54
2022/10/30 07:19:23;;;;;;;5.07;3.10;;;;;;;;;;4980062;28;20623;-56
2022/10/30 07:21:49;;;;;;;10.20;3.27;;;;;;;;;;4939015;28;21034;-56
2022/10/30 07:24:15;;;;;;;10.00;3.90;;;;;;;;;;4974569;28;20507;-56
2022/10/30 07:26:41;;;;;;;5.80;3.10;;;;;;;;;;4977052;28;20535;-56
2022/10/30 07:29:07;;;;;;;13.10;3.73;;;;;;;;;;4982552;28;20437;-56
2022/10/30 07:31:33;;;;;;;7.00;3.50;;;;;;;;;;4960902;28;20527;-56
2022/10/30 07:33:59;;;;;;;8.53;3.37;;;;;;;;;;4992486;28;20445;-56
2022/10/30 07:36:25;;;;;;;12.20;3.77;;;;;;;;;;4960183;28;20832;-55
2022/10/30 07:38:51;;;;;;;11.77;3.37;;;;;;;;;;4982997;28;20441;-56
2022/10/30 07:41:17;;;;;;;4.70;3.43;;;;;;;;;;4961375;28;20549;-56
2022/10/30 07:43:43;;;;;;;8.80;4.10;;;;;;;;;;4995656;28;20498;-56
2022/10/30 07:46:09;;;;;;;7.60;5.57;;;;;;;;;;4953992;28;20477;-56
2022/10/30 07:48:35;;;;;;;8.63;3.10;;;;;;;;;;4983686;28;20452;-56
2022/10/30 07:51:01;;;;;;;6.47;3.13;;;;;;;;;;4971067;28;20441;-56
2022/10/30 07:53:27;;;;;;;18.90;4.40;;;;;;;;;;4976644;28;20445;-56
2022/10/30 07:56:01;;;;;;;8.97;3.90;;;;;;;;;;4947277;28;20460;-57
2022/10/30 07:58:27;;;;;;;8.27;3.30;;;;;;;;;;4971407;28;22379;-56
2022/10/30 08:00:53;;;;;;;6.03;3.43;;;;;;;;;;4981339;28;20523;-56
2022/10/30 08:03:19;;;;;;;11.37;3.70;;;;;;;;;;4948881;28;20448;-56
2022/10/30 08:05:45;;;;;;;15.03;3.93;;;;;;;;;;4972846;28;21744;-56
2022/10/30 08:08:11;;;;;;;6.40;3.03;;;;;;;;;;4953556;28;20702;-56
2022/10/30 08:10:37;;;;;;;13.50;3.80;;;;;;;;;;4982849;28;20438;-55
2022/10/30 08:13:03;;;;;;;10.20;3.43;;;;;;;;;;4955272;28;20548;-55
2022/10/30 08:15:29;;;;;;;7.63;3.13;;;;;;;;;;4941862;28;20560;-56
2022/10/30 08:17:55;;;;;;;10.23;2.90;;;;;;;;;;4938371;28;20445;-55
2022/10/30 08:20:22;;;;;;;8.13;3.70;;;;;;;;;;4957936;28;21264;-55
2022/10/30 08:22:48;;;;;;;6.90;3.60;;;;;;;;;;4939549;28;20437;-56
2022/10/30 08:25:14;;;;;;;5.50;3.37;;;;;;;;;;4947813;28;20933;-56
2022/10/30 08:27:51;;;;;;;7.57;4.27;;;;;;;;;;4957328;28;20464;-57
2022/10/30 08:30:18;;;;;;;8.17;3.53;;;;;;;;;;4927806;28;20872;-57
2022/10/30 08:32:44;;;;;;;5.03;3.37;;;;;;;;;;4981087;28;20479;-56
2022/10/30 08:35:10;;;;;;;8.80;3.43;;;;;;;;;;4957717;28;20449;-56
2022/10/30 08:37:36;;;;;;;8.60;3.57;;;;;;;;;;4951967;28;20445;-55
2022/10/30 08:40:02;;;;;;;5.37;3.27;;;;;;;;;;4974708;28;20449;-57
2022/10/30 08:42:28;;;;;;;11.47;4.37;;;;;;;;;;4954286;28;20194;-56
2022/10/30 08:44:54;;;;;;;12.80;4.90;;;;;;;;;;4972014;28;20939;-56
2022/10/30 08:47:19;;;;;;;8.50;3.93;;;;;;;;;;4951653;28;20197;-57
2022/10/30 08:49:45;;;;;;;4.90;3.60;;;;;;;;;;4979006;28;20433;-57
2022/10/30 08:52:11;;;;;;;9.33;3.47;;;;;;;;;;4959141;28;21776;-55
2022/10/30 08:54:37;;;;;;;9.93;4.40;;;;;;;;;;4981813;28;20526;-58
2022/10/30 08:57:03;;;;;;;11.77;5.20;;;;;;;;;;4979496;28;20528;-57
2022/10/30 08:59:29;;;;;;;11.50;4.20;;;;;;;;;;4981612;28;20221;-57
2022/10/30 09:02:02;;;;;;;10.80;9.53;;;;;;;;;;4958308;28;23982;-57
2022/10/30 09:04:30;;;;;;;7.37;4.60;;;;;;;;;;4967231;28;20240;-57
2022/10/30 09:06:57;;;;;;;9.33;4.63;;;;;;;;;;4955404;28;20452;-57
2022/10/30 09:09:22;;;;;;;6.70;4.10;;;;;;;;;;4979004;28;20187;-57
2022/10/30 09:11:48;;;;;;;13.07;4.23;;;;;;;;;;4968720;28;20471;-58
2022/10/30 09:14:14;;;;;;;4.83;3.80;;;;;;;;;;4974967;28;20437;-58
2022/10/30 09:16:40;;;;;;;8.73;5.53;;;;;;;;;;4985637;28;20433;-57
2022/10/30 09:19:06;;;;;;;8.43;4.40;;;;;;;;;;4987740;28;20448;-57
2022/10/30 09:21:32;;;;;;;8.13;5.30;;;;;;;;;;4974579;28;20438;-57
2022/10/30 09:23:58;;;;;;;6.63;4.30;;;;;;;;;;4969868;28;20463;-55
2022/10/30 09:26:24;;;;;;;8.53;4.90;;;;;;;;;;4985266;28;20489;-57
2022/10/30 09:28:50;;;;;;;6.20;3.87;;;;;;;;;;4979804;28;20204;-56
2022/10/30 09:31:16;;;;;;;8.00;5.00;;;;;;;;;;4981060;28;20579;-56
2022/10/30 09:33:42;;;;;;;11.00;5.47;;;;;;;;;;4941017;28;20444;-57
2022/10/30 09:36:08;;;;;;;8.03;4.20;;;;;;;;;;4984798;28;20544;-56
2022/10/30 09:38:34;;;;;;;11.30;5.20;;;;;;;;;;4979884;28;21062;-55
2022/10/30 09:41:09;;;;;;;8.87;5.30;;;;;;;;;;4982414;28;20614;-56
2022/10/30 09:43:40;;;;;;;15.53;5.77;;;;;;;;;;4958773;28;20672;-55
2022/10/30 09:46:25;;;;;;;9.20;4.80;;;;;;;;;;4994531;28;20569;-55
2022/10/30 09:49:06;;;;;;;9.43;5.00;;;;;;;;;;4955353;28;20540;-55
2022/10/30 09:51:38;;;;;;;13.97;6.43;;;;;;;;;;4949277;28;20453;-55
2022/10/30 09:54:04;;;;;;;11.53;5.27;;;;;;;;;;4960033;28;20436;-55
2022/10/30 09:56:30;;;;;;;7.87;4.67;;;;;;;;;;4949074;28;20464;-54
2022/10/30 09:58:57;;;;;;;11.13;4.60;;;;;;;;;;4980329;28;20435;-54
2022/10/30 10:01:27;;;;;;;8.73;4.40;;;;;;;;;;4957092;28;20993;-55
2022/10/30 10:04:02;;;;;;;7.80;5.00;;;;;;;;;;4986926;28;20532;-54
2022/10/30 10:06:28;;;;;;;9.77;5.10;;;;;;;;;;4941802;28;20902;-54
2022/10/30 10:09:05;;;;;;;12.50;6.70;;;;;;;;;;4988246;28;20444;-55
2022/10/30 10:11:33;;;;;;;8.90;5.20;;;;;;;;;;4980567;28;20604;-55
2022/10/30 10:14:02;;;;;;;13.67;6.63;;;;;;;;;;4983138;28;20790;-55
2022/10/30 10:16:29;;;;;;;10.47;7.03;;;;;;;;;;4958908;28;20477;-55
2022/10/30 10:19:00;;;;;;;9.30;4.83;;;;;;;;;;4975589;28;20445;-55
2022/10/30 10:21:27;;;;;;;9.83;4.60;;;;;;;;;;4957363;28;20449;-56
2022/10/30 10:23:57;;;;;;;8.03;6.53;;;;;;;;;;4980739;28;21044;-56
2022/10/30 10:26:26;;;;;;;7.10;4.90;;;;;;;;;;4961877;28;20498;-57
2022/10/30 10:28:59;;;;;;;11.47;5.20;;;;;;;;;;4990998;28;20528;-55
2022/10/30 10:31:36;;;;;;;13.63;4.60;;;;;;;;;;4960078;28;20539;-56
2022/10/30 10:34:02;;;;;;;9.73;5.10;;;;;;;;;;4965861;28;20436;-57
2022/10/30 10:36:42;;;;;;;8.60;4.90;;;;;;;;;;4990799;28;20455;-58
2022/10/30 10:39:17;;;;;;;9.33;5.03;;;;;;;;;;4961509;28;20758;-56
2022/10/30 10:41:43;;;;;;;9.43;5.23;;;;;;;;;;4983817;28;20532;-56
2022/10/30 10:44:15;;;;;;;7.33;5.30;;;;;;;;;;4966994;28;20437;-56
2022/10/30 10:46:53;;;;;;;9.23;4.90;;;;;;;;;;4989914;28;20253;-55
2022/10/30 10:49:25;;;;;;;10.90;5.57;;;;;;;;;;4980107;28;20727;-58
2022/10/30 10:51:53;;;;;;;11.30;5.43;;;;;;;;;;4964110;28;20450;-57
2022/10/30 10:54:21;;;;;;;14.60;6.63;;;;;;;;;;4988410;28;20545;-56
2022/10/30 10:56:48;;;;;;;11.00;5.80;;;;;;;;;;4982964;28;20433;-57
2022/10/30 10:59:23;;;;;;;11.63;5.60;;;;;;;;;;4986441;28;20465;-56
2022/10/30 11:01:51;;;;;;;11.40;6.20;;;;;;;;;;4964599;28;20440;-56
2022/10/30 11:04:26;;;;;;;8.27;5.27;;;;;;;;;;4981233;28;21013;-56
2022/10/30 11:06:52;;;;;;;7.90;6.17;;;;;;;;;;4976106;28;20448;-56
2022/10/30 11:09:19;;;;;;;9.13;5.30;;;;;;;;;;4971704;28;20470;-57
2022/10/30 11:11:45;;;;;;;10.00;6.77;;;;;;;;;;4944568;28;20485;-56
2022/10/30 11:14:12;;;;;;;8.90;5.13;;;;;;;;;;4998876;28;20974;-56
2022/10/30 11:16:40;;;;;;;10.07;5.80;;;;;;;;;;4944944;28;20445;-57
2022/10/30 11:19:07;;;;;;;8.00;5.73;;;;;;;;;;4981830;28;20441;-56
2022/10/30 11:21:44;;;;;;;9.10;5.27;;;;;;;;;;4959611;28;20443;-57
2022/10/30 11:24:25;;;;;;;15.00;7.90;;;;;;;;;;4986446;28;20449;-56
2022/10/30 11:26:51;;;;;;;8.77;6.20;;;;;;;;;;4980468;28;20540;-56
2022/10/30 11:29:19;;;;;;;13.33;5.63;;;;;;;;;;4989514;28;20880;-56
2022/10/30 11:31:46;;;;;;;11.33;4.60;;;;;;;;;;4970957;28;21017;-55
2022/10/30 11:34:15;;;;;;;7.70;5.50;;;;;;;;;;4984285;28;20508;-56
2022/10/30 11:36:41;;;;;;;14.10;6.00;;;;;;;;;;4960867;28;20949;-56
2022/10/30 11:39:10;;;;;;;13.57;6.77;;;;;;;;;;4987713;28;20482;-56
2022/10/30 11:41:36;;;;;;;10.13;6.60;;;;;;;;;;4947296;28;20476;-56
2022/10/30 11:44:02;;;;;;;9.13;6.23;;;;;;;;;;4983594;28;20488;-57
2022/10/30 11:46:28;;;;;;;8.80;5.47;;;;;;;;;;4978196;28;21286;-57
2022/10/30 11:48:54;;;;;;;7.20;5.23;;;;;;;;;;4983185;28;20640;-57
2022/10/30 11:51:36;;;;;;;12.70;5.80;;;;;;;;;;4960361;28;21282;-55
2022/10/30 11:54:02;;;;;;;10.07;5.60;;;;;;;;;;4990597;28;20501;-55
2022/10/30 11:56:28;;;;;;;10.20;5.70;;;;;;;;;;4959889;28;20519;-56
2022/10/30 11:58:58;;;;;;;9.10;6.30;;;;;;;;;;4960697;28;21125;-56
2022/10/30 12:01:31;;;;;;;8.30;5.87;;;;;;;;;;4969838;28;20479;-55
2022/10/30 12:03:57;;;;;;;17.00;6.83;;;;;;;;;;4983543;28;20432;-55
2022/10/30 12:06:26;;;;;;;10.00;5.30;;;;;;;;;;4974659;28;20605;-55
2022/10/30 12:09:12;;;;;;;8.70;4.77;;;;;;;;;;4972411;28;20991;-56
2022/10/30 12:11:38;;;;;;;6.90;4.83;;;;;;;;;;4961985;28;20422;-54
2022/10/30 12:14:04;;;;;;;9.90;5.37;;;;;;;;;;4973384;28;20444;-55
2022/10/30 12:16:30;;;;;;;12.70;6.30;;;;;;;;;;4943795;28;20457;-55
2022/10/30 12:18:58;;;;;;;9.77;5.37;;;;;;;;;;4977999;28;20489;-55
2022/10/30 12:21:25;;;;;;;9.27;5.47;;;;;;;;;;4968648;28;21657;-56
2022/10/30 12:23:53;;;;;;;14.30;6.27;;;;;;;;;;4986434;28;20539;-54
2022/10/30 12:26:19;;;;;;;9.60;5.07;;;;;;;;;;4946372;28;20473;-55
2022/10/30 12:28:58;;;;;;;10.13;6.10;;;;;;;;;;4979750;28;20496;-55
2022/10/30 12:31:26;;;;;;;5.53;4.43;;;;;;;;;;4955097;28;20440;-54
2022/10/30 12:34:03;;;;;;;6.30;4.97;;;;;;;;;;4974853;28;20445;-56
2022/10/30 12:36:34;;;;;;;12.80;5.50;;;;;;;;;;4931960;28;21304;-55
2022/10/30 12:39:04;;;;;;;8.73;5.17;;;;;;;;;;4985687;28;21762;-55
2022/10/30 12:41:31;;;;;;;7.40;5.10;;;;;;;;;;4962968;28;20452;-58
2022/10/30 12:44:23;;;;;;;11.70;6.70;;;;;;;;;;5001153;28;20440;-58
2022/10/30 12:47:07;;;;;;;9.30;5.97;;;;;;;;;;4945063;28;21163;-58
2022/10/30 12:49:51;;;;;;;7.10;4.60;;;;;;;;;;4987146;28;20441;-60
2022/10/30 12:52:25;;;;;;;9.10;5.20;;;;;;;;;;4956356;28;20449;-56
2022/10/30 12:54:52;;;;;;;7.33;4.93;;;;;;;;;;4985711;28;20529;-57
2022/10/30 12:57:20;;;;;;;9.13;6.07;;;;;;;;;;4947462;28;24357;-55
2022/10/30 12:59:46;;;;;;;9.77;4.97;;;;;;;;;;4965835;28;21158;-55
2022/10/30 13:02:19;;;;;;;10.70;6.43;;;;;;;;;;4951142;28;20500;-56
2022/10/30 13:04:47;;;;;;;10.30;5.80;;;;;;;;;;4972430;28;20536;-57
2022/10/30 13:07:22;;;;;;;8.70;5.43;;;;;;;;;;4971091;28;20475;-57
2022/10/30 13:09:51;;;;;;;10.10;5.10;;;;;;;;;;4975664;28;20448;-57
2022/10/30 13:12:25;;;;;;;8.37;5.80;;;;;;;;;;4948006;28;20445;-55
2022/10/30 13:14:57;;;;;;;5.50;4.63;;;;;;;;;;4984698;28;20934;-53
2022/10/30 13:17:23;;;;;;;10.07;5.67;;;;;;;;;;4948928;28;20484;-57
2022/10/30 13:19:50;;;;;;;8.97;5.90;;;;;;;;;;4983047;28;20459;-56
2022/10/30 13:22:22;;;;;;;11.77;5.80;;;;;;;;;;4953328;28;20473;-55
2022/10/30 13:24:54;;;;;;;16.47;5.90;;;;;;;;;;4978731;28;20455;-57
2022/10/30 13:27:21;;;;;;;8.53;6.43;;;;;;;;;;4975184;28;20432;-56
2022/10/30 13:29:56;;;;;;;10.20;6.43;;;;;;;;;;4981414;28;20459;-56
2022/10/30 13:32:34;;;;;;;9.20;6.50;;;;;;;;;;4960314;28;20444;-57
2022/10/30 13:35:00;;;;;;;13.23;5.00;;;;;;;;;;4975999;28;20460;-56
2022/10/30 13:37:28;;;;;;;11.50;5.77;;;;;;;;;;4953412;28;20986;-57
2022/10/30 13:40:00;;;;;;;7.13;5.57;;;;;;;;;;4982210;28;20630;-54
2022/10/30 13:42:38;;;;;;;9.83;5.80;;;;;;;;;;4957729;28;20444;-55
2022/10/30 13:45:23;;;;;;;15.20;6.30;;;;;;;;;;4975400;28;20472;-55
2022/10/30 13:48:08;;;;;;;8.07;6.23;;;;;;;;;;4951655;28;20946;-57
2022/10/30 13:50:44;;;;;;;10.30;7.47;;;;;;;;;;4978314;28;21044;-54
2022/10/30 13:53:12;;;;;;;10.43;6.07;;;;;;;;;;4941178;28;20448;-56
2022/10/30 13:55:38;;;;;;;9.87;5.90;;;;;;;;;;4951848;28;20425;-56
2022/10/30 13:58:04;;;;;;;10.63;6.40;;;;;;;;;;4982819;28;20463;-55
2022/10/30 14:00:43;;;;;;;10.10;5.60;;;;;;;;;;4976510;28;20449;-54
2022/10/30 14:03:16;;;;;;;10.97;6.63;;;;;;;;;;4982309;28;20973;-56
2022/10/30 14:05:47;;;;;;;13.63;6.33;;;;;;;;;;4952617;28;20483;-55
2022/10/30 14:08:32;;;;;;;9.03;6.13;;;;;;;;;;5001879;28;20445;-55
2022/10/30 14:10:58;;;;;;;9.87;6.77;;;;;;;;;;4957730;28;20503;-57
2022/10/30 14:13:43;;;;;;;11.23;7.23;;;;;;;;;;4982847;28;20944;-57
2022/10/30 14:16:11;;;;;;;10.07;5.63;;;;;;;;;;4974594;28;20507;-57
2022/10/30 14:18:40;;;;;;;9.17;6.97;;;;;;;;;;4982634;28;21013;-58
2022/10/30 14:21:24;;;;;;;9.00;5.53;;;;;;;;;;4917515;28;20476;-56
2022/10/30 14:23:58;;;;;;;10.00;5.60;;;;;;;;;;4981335;28;20446;-56
2022/10/30 14:26:24;;;;;;;9.13;5.73;;;;;;;;;;4950245;28;20481;-56
2022/10/30 14:28:50;;;;;;;7.13;6.43;;;;;;;;;;4975075;28;20431;-55
2022/10/30 14:31:19;;;;;;;13.10;5.40;;;;;;;;;;4943876;28;20566;-55
2022/10/30 14:33:49;;;;;;;8.33;5.50;;;;;;;;;;4983625;28;20556;-55
2022/10/30 14:36:15;;;;;;;14.03;6.57;;;;;;;;;;4952937;28;20494;-57
2022/10/30 14:38:41;;;;;;;9.53;6.17;;;;;;;;;;4981197;28;21228;-55
2022/10/30 14:41:22;;;;;;;6.93;5.40;;;;;;;;;;4954615;28;20722;-62
2022/10/30 14:44:08;;;;;;;12.73;6.70;;;;;;;;;;4992763;28;20448;-56